sensor_id;sensor_type;location;lat;lon;timestamp;pressure;altitude;pressure_sealevel;temperature;humidity
70250;BME280;57644;48.416;-123.374;2023-02-03T00:00:07;101839.85;;;0.82;87.88
70250;BME280;57644;48.416;-123.374;2023-02-03T00:02:35;101831.48;;;0.85;88.58
70250;BME280;57644;48.416;-123.374;2023-02-03T00:05:07;101830.55;;;0.71;88.13
70250;BME280;57644;48.416;-123.374;2023-02-03T00:07:38;101829.63;;;0.72;88.70
70250;BME280;57644;48.416;-123.374;2023-02-03T00:10:08;101819.55;;;0.76;88.56
70250;BME280;57644;48.416;-123.374;2023-02-03T00:12:42;101818.88;;;0.61;87.38
70250;BME280;57644;48.416;-123.374;2023-02-03T00:15:09;101823.34;;;0.61;88.25
70250;BME280;57644;48.416;-123.374;2023-02-03T00:17:38;101826.72;;;0.64;87.91
70250;BME280;57644;48.416;-123.374;2023-02-03T00:20:15;101821.48;;;0.63;87.76
70250;BME280;57644;48.416;-123.374;2023-02-03T00:22:39;101819.37;;;0.63;87.92
70250;BME280;57644;48.416;-123.374;2023-02-03T00:25:10;101815.58;;;0.58;87.24
70250;BME280;57644;48.416;-123.374;2023-02-03T00:27:40;101816.57;;;0.65;87.81
70250;BME280;57644;48.416;-123.374;2023-02-03T00:30:12;101813.18;;;0.70;87.90
70250;BME280;57644;48.416;-123.374;2023-02-03T00:32:41;101805.65;;;0.63;87.80
70250;BME280;57644;48.416;-123.374;2023-02-03T00:35:12;101807.82;;;0.49;87.90
70250;BME280;57644;48.416;-123.374;2023-02-03T00:37:42;101808.78;;;0.38;87.97
70250;BME280;57644;48.416;-123.374;2023-02-03T00:40:13;101807.08;;;0.43;88.46
70250;BME280;57644;48.416;-123.374;2023-02-03T00:42:43;101805.50;;;0.29;89.25
70250;BME280;57644;48.416;-123.374;2023-02-03T00:45:14;101802.84;;;0.36;89.31
70250;BME280;57644;48.416;-123.374;2023-02-03T00:47:44;101798.50;;;0.37;89.37
70250;BME280;57644;48.416;-123.374;2023-02-03T00:50:14;101795.28;;;0.34;89.75
70250;BME280;57644;48.416;-123.374;2023-02-03T00:52:45;101794.97;;;0.30;89.68
70250;BME280;57644;48.416;-123.374;2023-02-03T00:55:15;101786.13;;;0.33;90.04
70250;BME280;57644;48.416;-123.374;2023-02-03T00:57:46;101786.60;;;0.26;90.17
70250;BME280;57644;48.416;-123.374;2023-02-03T01:00:17;101797.71;;;0.26;90.43
70250;BME280;57644;48.416;-123.374;2023-02-03T01:02:46;101791.11;;;0.29;90.54
70250;BME280;57644;48.416;-123.374;2023-02-03T01:05:17;101786.72;;;0.25;90.88
70250;BME280;57644;48.416;-123.374;2023-02-03T01:07:47;101776.43;;;0.21;90.85
70250;BME280;57644;48.416;-123.374;2023-02-03T01:10:18;101779.48;;;-0.04;91.15
70250;BME280;57644;48.416;-123.374;2023-02-03T01:12:48;101782.04;;;-0.10;91.75
70250;BME280;57644;48.416;-123.374;2023-02-03T01:15:19;101775.27;;;-0.12;92.16
70250;BME280;57644;48.416;-123.374;2023-02-03T01:17:49;101762.42;;;-0.31;93.08
70250;BME280;57644;48.416;-123.374;2023-02-03T01:20:21;101760.07;;;-0.24;93.76
70250;BME280;57644;48.416;-123.374;2023-02-03T01:22:49;101760.08;;;-0.32;94.52
70250;BME280;57644;48.416;-123.374;2023-02-03T01:25:20;101767.60;;;-0.45;95.82
70250;BME280;57644;48.416;-123.374;2023-02-03T01:27:50;101763.84;;;-0.49;96.79
70250;BME280;57644;48.416;-123.374;2023-02-03T01:30:20;101757.83;;;-0.60;97.95
70250;BME280;57644;48.416;-123.374;2023-02-03T01:32:51;101760.53;;;-0.62;98.80
70250;BME280;57644;48.416;-123.374;2023-02-03T01:35:21;101759.34;;;-0.59;98.79
70250;BME280;57644;48.416;-123.374;2023-02-03T01:37:51;101756.58;;;-0.57;99.02
70250;BME280;57644;48.416;-123.374;2023-02-03T01:40:23;101754.25;;;-0.66;99.65
70250;BME280;57644;48.416;-123.374;2023-02-03T01:42:55;101746.91;;;-0.74;100.00
70250;BME280;57644;48.416;-123.374;2023-02-03T01:45:23;101738.11;;;-0.76;100.00
70250;BME280;57644;48.416;-123.374;2023-02-03T01:47:55;101735.01;;;-0.62;99.85
70250;BME280;57644;48.416;-123.374;2023-02-03T01:50:26;101738.44;;;-0.57;100.00
70250;BME280;57644;48.416;-123.374;2023-02-03T01:52:58;101733.35;;;-0.61;100.00
70250;BME280;57644;48.416;-123.374;2023-02-03T01:55:29;101732.07;;;-0.75;100.00
70250;BME280;57644;48.416;-123.374;2023-02-03T01:58:00;101722.94;;;-0.91;100.00
70250;BME280;57644;48.416;-123.374;2023-02-03T02:00:26;101722.31;;;-0.88;100.00
70250;BME280;57644;48.416;-123.374;2023-02-03T02:02:58;101714.83;;;-0.84;100.00
70250;BME280;57644;48.416;-123.374;2023-02-03T02:05:30;101712.34;;;-0.95;100.00
70250;BME280;57644;48.416;-123.374;2023-02-03T02:07:58;101705.84;;;-1.06;100.00
70250;BME280;57644;48.416;-123.374;2023-02-03T02:10:28;101708.14;;;-0.98;100.00
70250;BME280;57644;48.416;-123.374;2023-02-03T02:12:59;101703.19;;;-0.99;100.00
70250;BME280;57644;48.416;-123.374;2023-02-03T02:15:35;101701.19;;;-0.89;100.00
70250;BME280;57644;48.416;-123.374;2023-02-03T02:18:07;101696.99;;;-0.87;100.00
70250;BME280;57644;48.416;-123.374;2023-02-03T02:20:39;101692.85;;;-1.05;100.00
70250;BME280;57644;48.416;-123.374;2023-02-03T02:30:37;101706.91;;;-1.02;100.00
70250;BME280;57644;48.416;-123.374;2023-02-03T02:33:05;101712.15;;;-0.97;100.00
70250;BME280;57644;48.416;-123.374;2023-02-03T02:35:43;101704.55;;;-0.97;100.00
70250;BME280;57644;48.416;-123.374;2023-02-03T02:38:07;101702.84;;;-0.95;100.00
70250;BME280;57644;48.416;-123.374;2023-02-03T02:40:36;101705.84;;;-0.95;100.00
70250;BME280;57644;48.416;-123.374;2023-02-03T02:43:07;101705.93;;;-0.93;100.00
70250;BME280;57644;48.416;-123.374;2023-02-03T02:45:40;101704.47;;;-0.98;100.00
70250;BME280;57644;48.416;-123.374;2023-02-03T02:48:07;101699.60;;;-1.05;100.00
70250;BME280;57644;48.416;-123.374;2023-02-03T02:50:40;101702.30;;;-1.00;100.00
70250;BME280;57644;48.416;-123.374;2023-02-03T02:53:06;101694.41;;;-1.06;100.00
70250;BME280;57644;48.416;-123.374;2023-02-03T02:55:38;101685.54;;;-1.00;100.00
70250;BME280;57644;48.416;-123.374;2023-02-03T02:58:09;101690.98;;;-1.04;100.00
70250;BME280;57644;48.416;-123.374;2023-02-03T03:00:37;101693.92;;;-1.15;100.00
70250;BME280;57644;48.416;-123.374;2023-02-03T03:03:13;101692.39;;;-1.07;100.00
70250;BME280;57644;48.416;-123.374;2023-02-03T03:05:36;101688.02;;;-1.19;100.00
70250;BME280;57644;48.416;-123.374;2023-02-03T03:08:08;101690.77;;;-1.38;100.00
70250;BME280;57644;48.416;-123.374;2023-02-03T03:10:40;101693.19;;;-1.28;100.00
70250;BME280;57644;48.416;-123.374;2023-02-03T03:13:13;101688.41;;;-1.19;100.00
70250;BME280;57644;48.416;-123.374;2023-02-03T03:15:45;101681.95;;;-1.01;100.00
70250;BME280;57644;48.416;-123.374;2023-02-03T03:18:13;101689.76;;;-0.93;100.00
70250;BME280;57644;48.416;-123.374;2023-02-03T03:20:41;101681.02;;;-1.05;100.00
70250;BME280;57644;48.416;-123.374;2023-02-03T03:23:17;101677.84;;;-1.21;100.00
70250;BME280;57644;48.416;-123.374;2023-02-03T03:25:42;101671.70;;;-1.19;100.00
70250;BME280;57644;48.416;-123.374;2023-02-03T03:28:20;101665.52;;;-1.20;100.00
70250;BME280;57644;48.416;-123.374;2023-02-03T03:30:40;101665.66;;;-1.09;100.00
70250;BME280;57644;48.416;-123.374;2023-02-03T03:33:12;101664.29;;;-1.14;100.00
70250;BME280;57644;48.416;-123.374;2023-02-03T03:35:47;101661.49;;;-1.14;100.00
70250;BME280;57644;48.416;-123.374;2023-02-03T03:38:18;101661.83;;;-1.20;100.00
70250;BME280;57644;48.416;-123.374;2023-02-03T03:40:46;101663.35;;;-1.26;100.00
70250;BME280;57644;48.416;-123.374;2023-02-03T03:43:16;101659.75;;;-1.15;100.00
70250;BME280;57644;48.416;-123.374;2023-02-03T03:45:47;101663.79;;;-1.11;100.00
70250;BME280;57644;48.416;-123.374;2023-02-03T03:48:16;101668.86;;;-1.28;100.00
70250;BME280;57644;48.416;-123.374;2023-02-03T03:50:48;101666.99;;;-1.27;100.00
70250;BME280;57644;48.416;-123.374;2023-02-03T03:53:16;101670.96;;;-1.16;100.00
70250;BME280;57644;48.416;-123.374;2023-02-03T03:55:48;101675.92;;;-1.15;100.00
70250;BME280;57644;48.416;-123.374;2023-02-03T03:58:19;101682.84;;;-1.11;100.00
70250;BME280;57644;48.416;-123.374;2023-02-03T04:00:47;101681.38;;;-1.05;100.00
70250;BME280;57644;48.416;-123.374;2023-02-03T04:03:20;101670.32;;;-1.13;100.00
70250;BME280;57644;48.416;-123.374;2023-02-03T04:05:47;101668.07;;;-1.12;100.00
70250;BME280;57644;48.416;-123.374;2023-02-03T04:08:17;101668.96;;;-1.11;100.00
70250;BME280;57644;48.416;-123.374;2023-02-03T04:10:55;101664.76;;;-1.28;100.00
70250;BME280;57644;48.416;-123.374;2023-02-03T04:13:18;101664.86;;;-1.24;100.00
70250;BME280;57644;48.416;-123.374;2023-02-03T04:15:48;101671.33;;;-1.13;100.00
70250;BME280;57644;48.416;-123.374;2023-02-03T04:18:19;101673.24;;;-1.23;100.00
70250;BME280;57644;48.416;-123.374;2023-02-03T04:20:50;101675.17;;;-1.11;100.00
70250;BME280;57644;48.416;-123.374;2023-02-03T04:23:20;101665.58;;;-1.23;100.00
70250;BME280;57644;48.416;-123.374;2023-02-03T04:25:51;101671.76;;;-1.26;100.00
70250;BME280;57644;48.416;-123.374;2023-02-03T04:28:21;101679.07;;;-1.17;100.00
70250;BME280;57644;48.416;-123.374;2023-02-03T04:30:52;101683.75;;;-1.10;100.00
70250;BME280;57644;48.416;-123.374;2023-02-03T04:33:22;101696.51;;;-1.10;99.35
70250;BME280;57644;48.416;-123.374;2023-02-03T04:35:53;101706.22;;;-1.01;99.16
70250;BME280;57644;48.416;-123.374;2023-02-03T04:38:22;101715.43;;;-1.05;98.70
70250;BME280;57644;48.416;-123.374;2023-02-03T04:40:53;101706.61;;;-1.15;98.39
70250;BME280;57644;48.416;-123.374;2023-02-03T04:43:24;101716.85;;;-1.20;98.66
70250;BME280;57644;48.416;-123.374;2023-02-03T04:45:54;101712.22;;;-1.09;98.74
70250;BME280;57644;48.416;-123.374;2023-02-03T04:48:25;101705.22;;;-1.10;98.34
70250;BME280;57644;48.416;-123.374;2023-02-03T04:51:00;101714.26;;;-1.10;98.52
70250;BME280;57644;48.416;-123.374;2023-02-03T04:53:25;101721.32;;;-0.96;98.61
70250;BME280;57644;48.416;-123.374;2023-02-03T04:55:55;101736.26;;;-0.96;97.27
70250;BME280;57644;48.416;-123.374;2023-02-03T04:58:27;101748.45;;;-0.93;97.87
70250;BME280;57644;48.416;-123.374;2023-02-03T05:00:56;101754.14;;;-0.85;97.66
70250;BME280;57644;48.416;-123.374;2023-02-03T05:03:27;101757.42;;;-0.92;97.84
70250;BME280;57644;48.416;-123.374;2023-02-03T05:05:57;101757.05;;;-0.82;97.80
70250;BME280;57644;48.416;-123.374;2023-02-03T05:08:27;101774.44;;;-0.75;97.23
70250;BME280;57644;48.416;-123.374;2023-02-03T05:10:58;101759.75;;;-0.72;97.36
70250;BME280;57644;48.416;-123.374;2023-02-03T05:13:29;101737.31;;;-0.76;96.89
70250;BME280;57644;48.416;-123.374;2023-02-03T05:15:59;101736.93;;;-0.92;96.59
70250;BME280;57644;48.416;-123.374;2023-02-03T05:18:30;101734.18;;;-0.82;96.70
70250;BME280;57644;48.416;-123.374;2023-02-03T05:21:00;101737.37;;;-0.78;96.52
70250;BME280;57644;48.416;-123.374;2023-02-03T05:23:31;101728.98;;;-0.72;96.57
70250;BME280;57644;48.416;-123.374;2023-02-03T05:26:01;101716.95;;;-0.82;96.49
70250;BME280;57644;48.416;-123.374;2023-02-03T05:28:31;101718.11;;;-0.78;96.60
70250;BME280;57644;48.416;-123.374;2023-02-03T05:31:02;101694.55;;;-1.07;97.05
70250;BME280;57644;48.416;-123.374;2023-02-03T05:33:32;101661.46;;;-0.85;96.93
70250;BME280;57644;48.416;-123.374;2023-02-03T05:36:03;101651.72;;;-0.90;96.65
70250;BME280;57644;48.416;-123.374;2023-02-03T05:38:33;101662.00;;;-0.83;95.64
70250;BME280;57644;48.416;-123.374;2023-02-03T05:41:04;101647.67;;;-0.80;95.33
70250;BME280;57644;48.416;-123.374;2023-02-03T05:43:34;101624.97;;;-0.84;94.66
70250;BME280;57644;48.416;-123.374;2023-02-03T05:46:05;101632.44;;;-0.79;94.68
70250;BME280;57644;48.416;-123.374;2023-02-03T05:48:35;101633.78;;;-0.87;94.43
70250;BME280;57644;48.416;-123.374;2023-02-03T05:51:06;101634.49;;;-0.87;94.46
70250;BME280;57644;48.416;-123.374;2023-02-03T05:53:36;101623.25;;;-0.83;93.64
70250;BME280;57644;48.416;-123.374;2023-02-03T05:56:07;101626.38;;;-0.79;94.25
70250;BME280;57644;48.416;-123.374;2023-02-03T05:58:37;101644.62;;;-1.06;93.70
70250;BME280;57644;48.416;-123.374;2023-02-03T06:01:07;101644.20;;;-0.90;93.98
70250;BME280;57644;48.416;-123.374;2023-02-03T06:03:38;101646.50;;;-0.84;94.27
70250;BME280;57644;48.416;-123.374;2023-02-03T06:06:08;101646.31;;;-0.84;93.87
70250;BME280;57644;48.416;-123.374;2023-02-03T06:08:39;101647.16;;;-0.83;93.92
70250;BME280;57644;48.416;-123.374;2023-02-03T06:11:09;101648.72;;;-1.20;93.63
70250;BME280;57644;48.416;-123.374;2023-02-03T06:13:40;101641.56;;;-1.09;93.93
70250;BME280;57644;48.416;-123.374;2023-02-03T06:16:10;101641.18;;;-1.01;94.06
70250;BME280;57644;48.416;-123.374;2023-02-03T06:18:41;101636.15;;;-0.94;93.75
70250;BME280;57644;48.416;-123.374;2023-02-03T06:21:12;101634.18;;;-1.12;93.09
70250;BME280;57644;48.416;-123.374;2023-02-03T06:23:42;101631.21;;;-1.08;93.41
70250;BME280;57644;48.416;-123.374;2023-02-03T06:26:13;101641.48;;;-1.17;93.50
70250;BME280;57644;48.416;-123.374;2023-02-03T06:28:43;101628.69;;;-1.27;94.43
70250;BME280;57644;48.416;-123.374;2023-02-03T06:31:14;101623.21;;;-1.43;95.21
70250;BME280;57644;48.416;-123.374;2023-02-03T06:33:44;101621.92;;;-1.38;95.81
70250;BME280;57644;48.416;-123.374;2023-02-03T06:36:15;101619.39;;;-1.61;96.93
70250;BME280;57644;48.416;-123.374;2023-02-03T06:38:46;101628.85;;;-1.45;97.16
70250;BME280;57644;48.416;-123.374;2023-02-03T06:41:16;101633.43;;;-1.47;97.82
70250;BME280;57644;48.416;-123.374;2023-02-03T06:43:46;101638.57;;;-1.30;97.40
70250;BME280;57644;48.416;-123.374;2023-02-03T06:46:17;101632.85;;;-1.21;97.28
70250;BME280;57644;48.416;-123.374;2023-02-03T06:48:47;101632.45;;;-1.16;97.21
70250;BME280;57644;48.416;-123.374;2023-02-03T06:51:18;101617.81;;;-1.07;96.78
70250;BME280;57644;48.416;-123.374;2023-02-03T06:53:48;101615.26;;;-1.06;96.78
70250;BME280;57644;48.416;-123.374;2023-02-03T06:56:18;101620.64;;;-1.11;97.05
70250;BME280;57644;48.416;-123.374;2023-02-03T06:58:49;101614.49;;;-1.09;97.14
70250;BME280;57644;48.416;-123.374;2023-02-03T07:01:19;101602.23;;;-1.15;97.41
70250;BME280;57644;48.416;-123.374;2023-02-03T07:03:50;101593.28;;;-1.19;97.60
70250;BME280;57644;48.416;-123.374;2023-02-03T07:06:20;101588.38;;;-1.28;97.98
70250;BME280;57644;48.416;-123.374;2023-02-03T07:08:50;101578.53;;;-1.28;98.32
70250;BME280;57644;48.416;-123.374;2023-02-03T07:11:21;101572.17;;;-1.27;98.26
70250;BME280;57644;48.416;-123.374;2023-02-03T07:13:52;101568.90;;;-1.17;98.12
70250;BME280;57644;48.416;-123.374;2023-02-03T07:16:22;101573.00;;;-1.13;97.68
70250;BME280;57644;48.416;-123.374;2023-02-03T07:18:53;101564.68;;;-1.23;97.53
70250;BME280;57644;48.416;-123.374;2023-02-03T07:21:23;101563.14;;;-1.27;97.99
70250;BME280;57644;48.416;-123.374;2023-02-03T07:23:54;101560.15;;;-1.18;97.87
70250;BME280;57644;48.416;-123.374;2023-02-03T07:26:24;101559.96;;;-1.33;98.22
70250;BME280;57644;48.416;-123.374;2023-02-03T07:28:55;101555.68;;;-1.28;98.73
70250;BME280;57644;48.416;-123.374;2023-02-03T07:31:25;101555.53;;;-1.24;98.69
70250;BME280;57644;48.416;-123.374;2023-02-03T07:33:56;101555.40;;;-1.20;98.74
70250;BME280;57644;48.416;-123.374;2023-02-03T07:36:26;101551.37;;;-1.22;99.04
70250;BME280;57644;48.416;-123.374;2023-02-03T07:38:57;101544.89;;;-1.29;99.45
70250;BME280;57644;48.416;-123.374;2023-02-03T07:41:27;101544.35;;;-1.47;100.00
70250;BME280;57644;48.416;-123.374;2023-02-03T07:43:58;101541.61;;;-1.53;100.00
70250;BME280;57644;48.416;-123.374;2023-02-03T07:46:28;101538.97;;;-1.47;100.00
70250;BME280;57644;48.416;-123.374;2023-02-03T07:48:58;101530.96;;;-1.68;100.00
70250;BME280;57644;48.416;-123.374;2023-02-03T07:51:29;101527.95;;;-1.52;100.00
70250;BME280;57644;48.416;-123.374;2023-02-03T07:53:59;101530.46;;;-1.57;100.00
70250;BME280;57644;48.416;-123.374;2023-02-03T07:56:29;101518.63;;;-1.53;100.00
70250;BME280;57644;48.416;-123.374;2023-02-03T07:59:00;101511.17;;;-1.43;100.00
70250;BME280;57644;48.416;-123.374;2023-02-03T08:01:34;101510.19;;;-1.48;100.00
70250;BME280;57644;48.416;-123.374;2023-02-03T08:04:01;101510.05;;;-1.52;100.00
70250;BME280;57644;48.416;-123.374;2023-02-03T08:06:31;101505.21;;;-1.49;100.00
70250;BME280;57644;48.416;-123.374;2023-02-03T08:09:02;101493.21;;;-1.38;100.00
70250;BME280;57644;48.416;-123.374;2023-02-03T08:11:32;101484.66;;;-1.47;100.00
70250;BME280;57644;48.416;-123.374;2023-02-03T08:14:02;101482.19;;;-1.35;100.00
70250;BME280;57644;48.416;-123.374;2023-02-03T08:16:33;101486.20;;;-1.43;100.00
70250;BME280;57644;48.416;-123.374;2023-02-03T08:19:03;101492.14;;;-1.45;100.00
70250;BME280;57644;48.416;-123.374;2023-02-03T08:21:33;101489.89;;;-1.43;100.00
70250;BME280;57644;48.416;-123.374;2023-02-03T08:24:04;101483.63;;;-1.31;100.00
70250;BME280;57644;48.416;-123.374;2023-02-03T08:26:35;101487.24;;;-1.58;100.00
70250;BME280;57644;48.416;-123.374;2023-02-03T08:29:04;101479.86;;;-1.46;100.00
70250;BME280;57644;48.416;-123.374;2023-02-03T08:31:35;101470.77;;;-1.47;100.00
70250;BME280;57644;48.416;-123.374;2023-02-03T08:34:05;101469.90;;;-1.48;100.00
70250;BME280;57644;48.416;-123.374;2023-02-03T08:36:35;101470.91;;;-1.49;100.00
70250;BME280;57644;48.416;-123.374;2023-02-03T08:39:06;101466.63;;;-1.49;100.00
70250;BME280;57644;48.416;-123.374;2023-02-03T08:41:36;101456.24;;;-1.63;100.00
70250;BME280;57644;48.416;-123.374;2023-02-03T08:44:07;101455.71;;;-1.67;100.00
70250;BME280;57644;48.416;-123.374;2023-02-03T08:46:37;101452.68;;;-1.65;100.00
70250;BME280;57644;48.416;-123.374;2023-02-03T08:49:08;101441.37;;;-1.51;100.00
70250;BME280;57644;48.416;-123.374;2023-02-03T08:51:39;101427.48;;;-1.46;100.00
70250;BME280;57644;48.416;-123.374;2023-02-03T08:54:09;101421.39;;;-1.47;100.00
70250;BME280;57644;48.416;-123.374;2023-02-03T08:56:40;101417.97;;;-1.55;100.00
70250;BME280;57644;48.416;-123.374;2023-02-03T08:59:11;101416.60;;;-1.50;100.00
70250;BME280;57644;48.416;-123.374;2023-02-03T09:01:41;101416.36;;;-1.59;100.00
70250;BME280;57644;48.416;-123.374;2023-02-03T09:04:11;101407.05;;;-1.51;100.00
70250;BME280;57644;48.416;-123.374;2023-02-03T09:06:41;101404.38;;;-1.44;100.00
70250;BME280;57644;48.416;-123.374;2023-02-03T09:09:12;101401.23;;;-1.40;100.00
70250;BME280;57644;48.416;-123.374;2023-02-03T09:11:43;101395.52;;;-1.47;100.00
70250;BME280;57644;48.416;-123.374;2023-02-03T09:14:13;101388.79;;;-1.47;100.00
70250;BME280;57644;48.416;-123.374;2023-02-03T09:16:43;101380.91;;;-1.53;100.00
70250;BME280;57644;48.416;-123.374;2023-02-03T09:19:14;101375.29;;;-1.59;100.00
70250;BME280;57644;48.416;-123.374;2023-02-03T09:21:48;101374.15;;;-1.53;100.00
70250;BME280;57644;48.416;-123.374;2023-02-03T09:24:15;101371.28;;;-1.59;100.00
70250;BME280;57644;48.416;-123.374;2023-02-03T09:26:45;101372.59;;;-1.58;100.00
70250;BME280;57644;48.416;-123.374;2023-02-03T09:29:16;101369.58;;;-1.77;100.00
70250;BME280;57644;48.416;-123.374;2023-02-03T09:31:48;101366.06;;;-1.63;100.00
70250;BME280;57644;48.416;-123.374;2023-02-03T09:34:17;101357.59;;;-1.62;100.00
70250;BME280;57644;48.416;-123.374;2023-02-03T09:36:47;101342.65;;;-1.59;100.00
70250;BME280;57644;48.416;-123.374;2023-02-03T09:39:18;101345.42;;;-1.66;100.00
70250;BME280;57644;48.416;-123.374;2023-02-03T09:42:01;101343.06;;;-1.63;100.00
70250;BME280;57644;48.416;-123.374;2023-02-03T09:44:23;101342.63;;;-1.64;100.00
70250;BME280;57644;48.416;-123.374;2023-02-03T09:46:52;101338.24;;;-1.67;100.00
70250;BME280;57644;48.416;-123.374;2023-02-03T09:49:24;101347.85;;;-1.70;100.00
70250;BME280;57644;48.416;-123.374;2023-02-03T09:51:53;101346.15;;;-1.66;100.00
70250;BME280;57644;48.416;-123.374;2023-02-03T09:54:25;101355.63;;;-1.70;100.00
70250;BME280;57644;48.416;-123.374;2023-02-03T09:56:53;101361.96;;;-1.78;100.00
70250;BME280;57644;48.416;-123.374;2023-02-03T09:59:22;101366.16;;;-1.70;100.00
70250;BME280;57644;48.416;-123.374;2023-02-03T10:01:59;101364.91;;;-1.62;100.00
70250;BME280;57644;48.416;-123.374;2023-02-03T10:04:29;101367.45;;;-1.57;100.00
70250;BME280;57644;48.416;-123.374;2023-02-03T10:07:03;101359.27;;;-1.83;100.00
70250;BME280;57644;48.416;-123.374;2023-02-03T10:09:35;101353.97;;;-1.69;100.00
70250;BME280;57644;48.416;-123.374;2023-02-03T10:12:14;101361.36;;;-1.62;100.00
70250;BME280;57644;48.416;-123.374;2023-02-03T10:14:37;101350.86;;;-1.57;100.00
70250;BME280;57644;48.416;-123.374;2023-02-03T10:19:35;101336.51;;;-1.67;100.00
70250;BME280;57644;48.416;-123.374;2023-02-03T10:21:59;101344.59;;;-1.73;99.47
70250;BME280;57644;48.416;-123.374;2023-02-03T10:24:34;101333.54;;;-1.57;99.38
70250;BME280;57644;48.416;-123.374;2023-02-03T10:26:59;101319.44;;;-1.77;98.81
70250;BME280;57644;48.416;-123.374;2023-02-03T10:29:33;101317.81;;;-1.63;98.16
70250;BME280;57644;48.416;-123.374;2023-02-03T10:32:00;101288.05;;;-1.59;96.94
70250;BME280;57644;48.416;-123.374;2023-02-03T10:34:30;101278.79;;;-1.96;97.06
70250;BME280;57644;48.416;-123.374;2023-02-03T10:37:04;101270.15;;;-1.90;97.01
70250;BME280;57644;48.416;-123.374;2023-02-03T10:39:34;101256.10;;;-1.66;96.73
70250;BME280;57644;48.416;-123.374;2023-02-03T10:42:03;101227.06;;;-1.74;95.64
70250;BME280;57644;48.416;-123.374;2023-02-03T10:44:37;101215.19;;;-1.78;95.39
70250;BME280;57644;48.416;-123.374;2023-02-03T10:47:14;101209.58;;;-2.10;96.13
70250;BME280;57644;48.416;-123.374;2023-02-03T10:49:34;101201.84;;;-1.78;95.78
70250;BME280;57644;48.416;-123.374;2023-02-03T10:52:04;101186.82;;;-1.83;95.15
70250;BME280;57644;48.416;-123.374;2023-02-03T10:54:35;101183.66;;;-1.62;94.46
70250;BME280;57644;48.416;-123.374;2023-02-03T10:57:09;101179.78;;;-1.57;92.66
70250;BME280;57644;48.416;-123.374;2023-02-03T10:59:41;101184.92;;;-1.55;92.32
70250;BME280;57644;48.416;-123.374;2023-02-03T11:02:09;101191.96;;;-1.41;92.09
70250;BME280;57644;48.416;-123.374;2023-02-03T11:04:37;101200.40;;;-1.36;91.44
70250;BME280;57644;48.416;-123.374;2023-02-03T11:07:25;101202.46;;;-1.30;91.33
70250;BME280;57644;48.416;-123.374;2023-02-03T11:09:39;101213.37;;;-1.16;91.13
70250;BME280;57644;48.416;-123.374;2023-02-03T11:12:13;101216.74;;;-1.10;90.51
70250;BME280;57644;48.416;-123.374;2023-02-03T11:14:41;101218.71;;;-1.08;90.90
70250;BME280;57644;48.416;-123.374;2023-02-03T11:17:15;101220.84;;;-1.02;90.31
70250;BME280;57644;48.416;-123.374;2023-02-03T11:19:43;101227.64;;;-1.02;89.12
70250;BME280;57644;48.416;-123.374;2023-02-03T11:22:11;101224.36;;;-0.99;89.71
70250;BME280;57644;48.416;-123.374;2023-02-03T11:24:42;101210.31;;;-0.98;89.08
70250;BME280;57644;48.416;-123.374;2023-02-03T11:27:13;101203.17;;;-1.03;88.91
70250;BME280;57644;48.416;-123.374;2023-02-03T11:29:44;101186.62;;;-1.03;88.50
70250;BME280;57644;48.416;-123.374;2023-02-03T11:32:18;101176.84;;;-1.04;87.99
70250;BME280;57644;48.416;-123.374;2023-02-03T11:34:48;101177.85;;;-1.10;89.15
70250;BME280;57644;48.416;-123.374;2023-02-03T11:39:44;101169.79;;;-1.11;87.97
70250;BME280;57644;48.416;-123.374;2023-02-03T11:42:21;101159.85;;;-1.31;88.58
70250;BME280;57644;48.416;-123.374;2023-02-03T11:44:45;101145.29;;;-1.21;88.70
70250;BME280;57644;48.416;-123.374;2023-02-03T11:47:17;101136.27;;;-1.27;89.12
70250;BME280;57644;48.416;-123.374;2023-02-03T11:54:53;101122.34;;;-1.11;88.97
70250;BME280;57644;48.416;-123.374;2023-02-03T11:57:27;101121.95;;;-1.07;87.80
70250;BME280;57644;48.416;-123.374;2023-02-03T12:00:02;101115.93;;;-1.02;88.68
70250;BME280;57644;48.416;-123.374;2023-02-03T12:02:32;101109.42;;;-1.08;87.46
70250;BME280;57644;48.416;-123.374;2023-02-03T12:05:02;101101.39;;;-1.09;87.78
70250;BME280;57644;48.416;-123.374;2023-02-03T12:07:31;101108.61;;;-1.11;87.13
70250;BME280;57644;48.416;-123.374;2023-02-03T12:09:56;101103.20;;;-1.10;87.42
70250;BME280;57644;48.416;-123.374;2023-02-03T12:12:33;101102.92;;;-1.23;87.27
70250;BME280;57644;48.416;-123.374;2023-02-03T12:14:59;101096.59;;;-1.19;87.83
70250;BME280;57644;48.416;-123.374;2023-02-03T12:17:32;101084.65;;;-1.22;87.69
70250;BME280;57644;48.416;-123.374;2023-02-03T12:20:04;101070.54;;;-1.24;87.70
70250;BME280;57644;48.416;-123.374;2023-02-03T12:22:25;101072.32;;;-1.20;87.43
70250;BME280;57644;48.416;-123.374;2023-02-03T12:24:59;101064.58;;;-1.29;86.46
70250;BME280;57644;48.416;-123.374;2023-02-03T12:27:34;101061.16;;;-1.33;86.78
70250;BME280;57644;48.416;-123.374;2023-02-03T12:29:58;101064.58;;;-1.36;86.15
70250;BME280;57644;48.416;-123.374;2023-02-03T12:32:31;101072.66;;;-1.17;87.12
70250;BME280;57644;48.416;-123.374;2023-02-03T12:35:01;101081.33;;;-1.10;85.98
70250;BME280;57644;48.416;-123.374;2023-02-03T12:37:29;101070.93;;;-1.07;84.90
70250;BME280;57644;48.416;-123.374;2023-02-03T12:39:59;101071.80;;;-1.17;84.42
70250;BME280;57644;48.416;-123.374;2023-02-03T12:42:31;101074.23;;;-1.15;84.50
70250;BME280;57644;48.416;-123.374;2023-02-03T12:45:01;101076.61;;;-1.21;83.80
70250;BME280;57644;48.416;-123.374;2023-02-03T12:47:33;101067.87;;;-1.23;84.25
70250;BME280;57644;48.416;-123.374;2023-02-03T12:50:03;101050.30;;;-1.15;83.81